createdAt,value
2023-03-17T00:03:20.042Z,100091.72
2023-03-17T00:08:23.239Z,100084.94
2023-03-17T00:13:24.841Z,100090.25
2023-03-17T00:18:27.375Z,100094.66
2023-03-17T00:23:28.742Z,100099.69
2023-03-17T00:28:30.144Z,100101.44
2023-03-17T00:33:34.220Z,100098.38
2023-03-17T00:38:35.578Z,100100.00
2023-03-17T00:43:36.978Z,100095.81
2023-03-17T00:48:38.523Z,100083.97
2023-03-17T00:53:40.020Z,100083.13
2023-03-17T00:58:41.618Z,100075.25
2023-03-17T01:03:43.923Z,100073.91
2023-03-17T01:08:45.335Z,100061.88
2023-03-17T01:13:46.732Z,100076.72
2023-03-17T01:18:48.435Z,100071.84
2023-03-17T01:23:49.864Z,100081.06
2023-03-17T01:28:51.196Z,100075.94
2023-03-17T01:33:52.597Z,100077.66
2023-03-17T01:38:53.954Z,100091.50
2023-03-17T01:43:55.318Z,100072.38
2023-03-17T01:49:02.859Z,100062.63
2023-03-17T01:54:09.344Z,100052.69
2023-03-17T01:59:13.163Z,100038.63
2023-03-17T02:04:14.549Z,100038.28
2023-03-17T02:09:16.199Z,100030.63
2023-03-17T02:14:17.567Z,100012.75
2023-03-17T02:19:19.476Z,99998.19
2023-03-17T02:24:32.082Z,100006.34
2023-03-17T02:29:34.735Z,100010.75
2023-03-17T02:34:36.139Z,100014.25
2023-03-17T02:39:37.515Z,100011.00
2023-03-17T02:44:39.073Z,99997.94
2023-03-17T02:49:41.476Z,100001.84
2023-03-17T02:54:42.930Z,99992.38
2023-03-17T02:59:44.381Z,99992.22
2023-03-17T03:04:45.744Z,99986.09
2023-03-17T03:09:47.104Z,99991.63
2023-03-17T03:14:48.488Z,99992.41
2023-03-17T03:19:49.881Z,99987.94
2023-03-17T03:24:51.234Z,99982.09
2023-03-17T03:29:52.626Z,99974.88
2023-03-17T03:34:54.019Z,99971.38
2023-03-17T03:39:55.388Z,99985.34
2023-03-17T03:44:56.824Z,99985.38
2023-03-17T03:49:58.181Z,99987.56
2023-03-17T03:55:00.178Z,99991.16
2023-03-17T04:00:01.953Z,99987.28
2023-03-17T04:05:03.483Z,99979.84
2023-03-17T04:10:05.147Z,99974.63
2023-03-17T04:15:07.197Z,99968.44
2023-03-17T04:20:09.150Z,99976.50
2023-03-17T04:25:12.384Z,99978.06
2023-03-17T04:30:14.313Z,99978.56
2023-03-17T04:35:17.225Z,99992.03
2023-03-17T04:40:19.250Z,99986.59
2023-03-17T04:45:20.620Z,100000.31
2023-03-17T04:50:22.010Z,100005.06
2023-03-17T04:55:23.459Z,99999.91
2023-03-17T05:00:24.911Z,100004.06
2023-03-17T05:05:26.294Z,100008.06
2023-03-17T05:10:27.715Z,100015.84
2023-03-17T05:15:29.128Z,100026.66
2023-03-17T05:20:30.653Z,100030.59
2023-03-17T05:25:32.089Z,100022.31
2023-03-17T05:30:34.294Z,100002.84
2023-03-17T05:35:35.947Z,100009.69
2023-03-17T05:40:37.336Z,100017.44
2023-03-17T05:45:38.729Z,100006.69
2023-03-17T05:50:40.253Z,99995.41
2023-03-17T05:55:41.625Z,100005.66
2023-03-17T06:00:43.259Z,100002.50
2023-03-17T06:05:45.222Z,100011.44
2023-03-17T06:10:46.952Z,100012.25
2023-03-17T06:15:48.639Z,100017.34
2023-03-17T06:20:50.217Z,100009.59
2023-03-17T06:25:51.618Z,100010.16
2023-03-17T06:30:53.682Z,100018.69
2023-03-17T06:35:55.276Z,100015.63
2023-03-17T06:40:56.609Z,100022.50
2023-03-17T06:45:58.564Z,100017.56
2023-03-17T06:51:00.169Z,99997.34
2023-03-17T06:56:02.161Z,99991.38
2023-03-17T07:01:03.570Z,99997.72
2023-03-17T07:06:05.005Z,100003.38
2023-03-17T07:11:06.399Z,100009.22
2023-03-17T07:16:08.002Z,99992.94
2023-03-17T07:21:09.545Z,99990.63
2023-03-17T07:26:11.019Z,99991.75
2023-03-17T07:31:12.451Z,99991.06
2023-03-17T07:36:14.041Z,99997.00
2023-03-17T08:09:16.692Z,99987.81
2023-03-17T08:14:18.105Z,99991.84
2023-03-17T08:19:19.489Z,99985.16
2023-03-17T08:24:20.963Z,99989.81
2023-03-17T08:29:22.346Z,99969.09
2023-03-17T08:34:23.909Z,99971.41
2023-03-17T08:39:25.442Z,99985.41
2023-03-17T08:44:26.854Z,99974.72
2023-03-17T08:49:28.250Z,99961.25
2023-03-17T08:54:29.608Z,99953.75
2023-03-17T08:59:31.027Z,99942.91
2023-03-17T09:04:32.393Z,99937.50
2023-03-17T09:09:34.320Z,99935.69
2023-03-17T09:14:43.490Z,99936.09
2023-03-17T09:19:45.836Z,99939.84
2023-03-17T09:24:47.203Z,99943.84
2023-03-17T09:29:48.581Z,99945.00
2023-03-17T09:34:51.599Z,99941.09
2023-03-17T09:39:53.127Z,99933.97
2023-03-17T09:44:57.285Z,99932.63
2023-03-17T09:50:00.649Z,99948.84
2023-03-17T09:55:03.502Z,99961.34
2023-03-17T10:00:16.278Z,99948.88
2023-03-17T10:05:26.471Z,99938.31
2023-03-17T10:10:37.033Z,99925.41
2023-03-17T10:15:48.728Z,99926.19
2023-03-17T10:21:12.640Z,99924.72
2023-03-17T10:26:24.619Z,99925.91
2023-03-17T10:31:30.109Z,99941.03
2023-03-17T10:36:38.547Z,99936.88
2023-03-17T10:41:41.264Z,99927.38
2023-03-17T10:46:51.993Z,99925.16
2023-03-17T10:51:54.001Z,99920.13
2023-03-17T10:57:03.318Z,99914.69
2023-03-17T11:02:34.252Z,99913.97
2023-03-17T11:07:37.652Z,99890.72
2023-03-17T11:12:39.711Z,99889.41
2023-03-17T11:17:41.054Z,99890.13
2023-03-17T11:22:45.050Z,99892.72
2023-03-17T11:27:46.345Z,99884.50
2023-03-17T11:33:06.406Z,99872.94
2023-03-17T11:38:13.650Z,99856.25
2023-03-17T11:43:29.860Z,99849.56
2023-03-17T11:48:43.160Z,99844.31
2023-03-17T11:54:06.887Z,99844.00
2023-03-17T11:59:15.748Z,99856.41
2023-03-17T12:04:26.109Z,99858.88
2023-03-17T12:09:30.373Z,99844.06
2023-03-17T12:14:37.619Z,99855.72
2023-03-17T12:21:38.816Z,99845.97
2023-03-17T12:26:48.043Z,99838.78
2023-03-17T12:31:52.984Z,99822.84
2023-03-17T12:36:55.946Z,99839.53
2023-03-17T12:42:02.808Z,99828.75
2023-03-17T12:47:16.939Z,99841.44
2023-03-17T12:52:25.883Z,99827.41
2023-03-17T12:57:29.481Z,99828.13
2023-03-17T13:02:36.237Z,99820.47
2023-03-17T13:07:41.566Z,99820.84
2023-03-17T13:13:03.797Z,99809.88
2023-03-17T13:18:22.745Z,99798.31
2023-03-17T13:23:34.276Z,99795.38
2023-03-17T13:28:43.780Z,99794.38
2023-03-17T13:33:49.204Z,99784.94
2023-03-17T13:39:17.872Z,99789.28
2023-03-17T13:44:25.882Z,99778.97
2023-03-17T13:49:29.460Z,99781.16
2023-03-17T13:54:33.979Z,99781.03
2023-03-17T13:59:36.283Z,99773.00
2023-03-17T14:04:43.667Z,99758.84
2023-03-17T14:09:46.592Z,99771.94
2023-03-17T14:14:49.472Z,99763.41
2023-03-17T14:20:01.128Z,99755.09
2023-03-17T14:25:04.346Z,99763.34
2023-03-17T14:30:07.823Z,99766.88
2023-03-17T14:35:13.087Z,99771.03
2023-03-17T14:40:20.464Z,99766.28
2023-03-17T14:45:27.676Z,99760.09
2023-03-17T14:50:30.537Z,99764.31
2023-03-17T14:55:35.330Z,99763.41
2023-03-17T15:00:43.192Z,99770.06
2023-03-17T15:05:44.748Z,99766.94
2023-03-17T15:10:47.646Z,99752.50
2023-03-17T15:15:49.077Z,99749.34
2023-03-17T15:20:50.561Z,99762.06
2023-03-17T15:25:54.522Z,99755.69
2023-03-17T15:30:58.991Z,99770.94
2023-03-17T15:36:00.544Z,99764.97
2023-03-17T15:41:03.527Z,99770.41
2023-03-17T15:46:07.164Z,99775.09
2023-03-17T15:51:09.955Z,99775.47
2023-03-17T15:56:16.054Z,99776.97
2023-03-17T16:01:18.312Z,99759.13
2023-03-17T16:06:20.782Z,99749.84
2023-03-17T16:11:23.701Z,99749.75
2023-03-17T16:16:29.368Z,99741.97
2023-03-17T16:21:31.125Z,99743.63
2023-03-17T16:26:34.005Z,99738.53
2023-03-17T16:31:37.033Z,99737.13
2023-03-17T16:36:38.575Z,99729.78
2023-03-17T16:41:41.602Z,99728.50
2023-03-17T16:46:43.186Z,99749.97
2023-03-17T16:51:45.600Z,99753.88
2023-03-17T16:57:01.862Z,99760.44
2023-03-17T17:02:03.728Z,99762.28
2023-03-17T17:07:06.352Z,99768.09
2023-03-17T17:12:26.263Z,99770.09
2023-03-17T17:17:31.000Z,99766.50
2023-03-17T17:22:38.624Z,99772.00
2023-03-17T17:27:46.224Z,99779.41
2023-03-17T17:33:04.937Z,99773.69
2023-03-17T17:38:13.150Z,99773.53
2023-03-17T17:43:16.189Z,99771.47
2023-03-17T17:48:18.695Z,99771.88
2023-03-17T17:53:20.345Z,99781.16
2023-03-17T17:58:24.633Z,99781.75
2023-03-17T18:03:26.499Z,99780.53
2023-03-17T18:08:28.087Z,99777.59
2023-03-17T18:13:31.024Z,99792.22
2023-03-17T18:18:32.534Z,99787.31
2023-03-17T18:23:34.043Z,99791.47
2023-03-17T18:28:36.877Z,99793.97
2023-03-17T18:33:39.071Z,99796.56
2023-03-17T18:38:40.624Z,99809.00
2023-03-17T18:43:43.407Z,99796.09
2023-03-17T18:48:44.964Z,99807.66
2023-03-17T18:53:46.431Z,99808.09
2023-03-17T18:58:49.470Z,99810.72
2023-03-17T19:03:51.171Z,99817.59
2023-03-17T19:08:52.669Z,99816.03
2023-03-17T19:13:55.569Z,99818.25
2023-03-17T19:18:57.691Z,99821.47
2023-03-17T19:23:59.884Z,99822.44
2023-03-17T19:29:02.898Z,99827.03
2023-03-17T19:34:04.389Z,99832.88
2023-03-17T19:39:06.618Z,99835.50
2023-03-17T19:44:09.578Z,99830.50
2023-03-17T19:49:11.142Z,99836.47
2023-03-17T19:54:13.121Z,99850.22
2023-03-17T19:59:15.975Z,99844.69
2023-03-17T20:04:17.536Z,99849.66
2023-03-17T20:09:19.048Z,99856.75
2023-03-17T20:14:22.066Z,99857.56
2023-03-17T20:19:23.558Z,99854.94
2023-03-17T20:24:25.111Z,99853.25
2023-03-17T20:29:28.057Z,99855.78
2023-03-17T20:34:29.597Z,99850.78
2023-03-17T20:39:31.351Z,99855.44
2023-03-17T20:44:34.211Z,99864.03
2023-03-17T20:49:36.048Z,99871.94
2023-03-17T20:54:37.513Z,99876.63
2023-03-17T20:59:40.511Z,99889.56
2023-03-17T21:04:42.015Z,99882.75
2023-03-17T21:09:43.925Z,99874.31
2023-03-17T21:14:47.134Z,99878.84
2023-03-17T21:19:48.590Z,99875.09
2023-03-17T21:24:50.236Z,99872.16
2023-03-17T21:29:53.453Z,99874.63
2023-03-17T21:34:54.948Z,99880.47
2023-03-17T21:39:56.424Z,99877.19
2023-03-17T21:44:59.275Z,99873.69
2023-03-17T21:50:00.847Z,99883.81
2023-03-17T21:55:02.428Z,99890.31
2023-03-17T22:00:06.728Z,99896.44
2023-03-17T22:05:08.862Z,99911.16
2023-03-17T22:10:11.037Z,99917.25
2023-03-17T22:15:13.990Z,99915.56
2023-03-17T22:20:15.619Z,99916.25
2023-03-17T22:25:17.269Z,99912.53
2023-03-17T22:30:20.467Z,99925.81
2023-03-17T22:35:21.925Z,99926.22
2023-03-17T22:40:23.407Z,99942.75
2023-03-17T22:45:26.723Z,99937.63
2023-03-17T22:50:28.193Z,99931.00
2023-03-17T22:55:29.688Z,99939.59
2023-03-17T23:00:33.050Z,99938.13
2023-03-17T23:05:34.772Z,99949.13
2023-03-17T23:10:36.212Z,99942.94
2023-03-17T23:15:39.134Z,99953.88
2023-03-17T23:20:40.703Z,99964.66
2023-03-17T23:25:42.216Z,99970.22
2023-03-17T23:30:45.122Z,99976.50
2023-03-17T23:35:46.692Z,99976.75
2023-03-17T23:40:48.506Z,99983.28
2023-03-17T23:45:52.693Z,99983.03
2023-03-17T23:50:54.221Z,99974.19
2023-03-17T23:55:55.889Z,99982.22
